Time;durP1;ratioP1;P1;durP2;ratioP2;P2;SDS_P1;SDS_P2;PMS_P1;PMS_P2;Temp;Humidity;BMP_temperature;BMP_pressure;BME280_temperature;BME280_humidity;BME280_pressure;Samples;Min_cycle;Max_cycle;Signal;HPM_P1;HPM_P2
2021/08/19 00:02:23;;;;;;;8.23;5.20;;;;;;;18.96;100.00;96090.22;4975597;28;20200;-87
2021/08/19 00:04:51;;;;;;;5.10;4.60;;;;;;;18.88;100.00;96095.81;4975302;28;20260;-87
2021/08/19 00:07:20;;;;;;;6.53;5.83;;;;;;;18.53;100.00;96106.81;4975924;28;20574;-86
2021/08/19 00:09:47;;;;;;;5.63;5.10;;;;;;;18.59;100.00;96110.47;4975470;28;20300;-86
2021/08/19 00:12:14;;;;;;;6.93;4.67;;;;;;;18.76;100.00;96112.47;4975829;28;20661;-87
2021/08/19 00:14:42;;;;;;;8.00;5.10;;;;;;;18.54;100.00;96127.09;4975524;28;20197;-85
2021/08/19 00:17:10;;;;;;;6.30;5.50;;;;;;;18.58;100.00;96117.66;4975293;28;20208;-85
2021/08/19 00:19:37;;;;;;;6.07;5.47;;;;;;;18.46;100.00;96116.66;4975360;28;20279;-86
2021/08/19 00:22:05;;;;;;;8.63;5.27;;;;;;;18.26;100.00;96119.44;4975149;28;20228;-86
2021/08/19 00:24:34;;;;;;;6.33;5.00;;;;;;;18.81;100.00;96114.50;4975140;28;20256;-86
2021/08/19 00:27:01;;;;;;;6.90;5.17;;;;;;;19.08;100.00;96116.97;4974783;28;20229;-86
2021/08/19 00:29:29;;;;;;;4.77;4.33;;;;;;;19.08;100.00;96119.63;4975026;28;20209;-84
2021/08/19 00:31:56;;;;;;;4.63;4.23;;;;;;;19.14;100.00;96124.91;4975174;28;20251;-85
2021/08/19 00:34:24;;;;;;;5.77;5.03;;;;;;;19.23;100.00;96125.50;4974772;28;20291;-85
2021/08/19 00:36:53;;;;;;;5.60;5.10;;;;;;;19.27;100.00;96117.88;4974786;28;20197;-86
2021/08/19 00:39:21;;;;;;;5.47;4.50;;;;;;;19.16;100.00;96124.72;4974780;28;20201;-86
2021/08/19 00:41:50;;;;;;;5.23;4.83;;;;;;;19.04;100.00;96124.56;4974591;28;20196;-84
2021/08/19 00:44:17;;;;;;;6.23;4.53;;;;;;;18.64;100.00;96130.13;4974878;28;20780;-85
2021/08/19 00:46:46;;;;;;;7.43;4.37;;;;;;;18.58;100.00;96130.16;4974629;28;20273;-85
2021/08/19 00:49:13;;;;;;;5.47;4.63;;;;;;;18.43;100.00;96130.44;4974659;28;20288;-86
2021/08/19 00:51:42;;;;;;;4.53;4.00;;;;;;;18.41;100.00;96132.47;4974426;28;20204;-85
2021/08/19 00:54:11;;;;;;;5.43;4.30;;;;;;;18.36;100.00;96118.97;4974571;28;20196;-85
2021/08/19 00:56:39;;;;;;;4.47;4.07;;;;;;;18.35;100.00;96106.69;4974161;28;20239;-86
2021/08/19 00:59:09;;;;;;;4.70;4.20;;;;;;;18.04;100.00;96113.56;4974324;28;20256;-85
2021/08/19 01:01:37;;;;;;;4.20;3.80;;;;;;;17.88;100.00;96106.03;5256206;23;20252;-83
2021/08/19 01:04:06;;;;;;;4.80;3.50;;;;;;;17.89;100.00;96103.16;4981913;28;20780;-84
2021/08/19 01:06:34;;;;;;;4.27;3.83;;;;;;;17.82;100.00;96102.38;4980586;28;20765;-83
2021/08/19 01:09:01;;;;;;;4.03;3.73;;;;;;;17.94;100.00;96094.56;4993470;28;20200;-83
2021/08/19 01:11:29;;;;;;;10.97;4.07;;;;;;;18.04;100.00;96106.38;4993707;28;20279;-83
2021/08/19 01:13:56;;;;;;;5.40;4.10;;;;;;;18.05;100.00;96100.06;4993878;28;20196;-84
2021/08/19 01:16:25;;;;;;;4.33;3.93;;;;;;;18.41;100.00;96089.91;4993298;28;20673;-83
2021/08/19 01:18:52;;;;;;;4.53;3.37;;;;;;;18.30;100.00;96097.50;4994063;28;20251;-83
2021/08/19 01:21:19;;;;;;;3.97;3.67;;;;;;;18.14;100.00;96102.47;4993228;28;20699;-83
2021/08/19 01:23:47;;;;;;;6.37;3.77;;;;;;;18.29;100.00;96095.88;4993346;28;20204;-84
2021/08/19 01:26:17;;;;;;;4.07;3.67;;;;;;;18.47;100.00;96091.72;4993207;28;20247;-83
2021/08/19 01:28:47;;;;;;;4.27;3.80;;;;;;;18.53;100.00;96090.84;4993328;28;20203;-83
2021/08/19 01:31:17;;;;;;;4.83;3.33;;;;;;;18.61;100.00;96098.59;4992900;28;20216;-82
2021/08/19 01:33:45;;;;;;;4.27;3.43;;;;;;;18.39;100.00;96114.06;4993611;28;20291;-83
2021/08/19 01:36:13;;;;;;;3.97;3.60;;;;;;;18.33;100.00;96108.78;4992816;28;20207;-83
2021/08/19 01:38:41;;;;;;;4.37;3.60;;;;;;;18.52;100.00;96107.84;4993467;28;20608;-83
2021/08/19 01:43:47;;;;;;;7.23;4.03;;;;;;;18.47;100.00;96094.38;5066770;23;20457;-84
2021/08/19 01:46:16;;;;;;;3.50;3.20;;;;;;;18.45;100.00;96096.41;4974388;28;20300;-85
2021/08/19 01:48:45;;;;;;;4.67;3.57;;;;;;;18.21;100.00;96104.09;4989142;28;20204;-85
2021/08/19 01:51:14;;;;;;;4.37;3.90;;;;;;;18.12;100.00;96099.22;4992788;28;20205;-84
2021/08/19 01:53:42;;;;;;;4.17;3.77;;;;;;;18.33;100.00;96095.47;4992785;28;20295;-85
2021/08/19 01:56:10;;;;;;;5.73;4.07;;;;;;;18.47;100.00;96086.41;4992995;28;20204;-85
2021/08/19 01:58:37;;;;;;;3.83;3.53;;;;;;;18.57;100.00;96085.94;4993052;28;20218;-86
2021/08/19 02:01:06;;;;;;;4.50;4.10;;;;;;;18.69;100.00;96094.88;4992803;28;20206;-85
2021/08/19 02:03:33;;;;;;;3.70;3.40;;;;;;;18.51;100.00;96087.59;4992684;28;20200;-85
2021/08/19 02:06:00;;;;;;;9.47;4.97;;;;;;;18.68;100.00;96086.06;4992681;28;20259;-85
2021/08/19 02:08:27;;;;;;;5.50;3.77;;;;;;;18.71;100.00;96091.00;4992645;28;20211;-85
2021/08/19 02:10:55;;;;;;;4.90;4.30;;;;;;;18.45;100.00;96088.44;4992667;28;20296;-86
2021/08/19 02:13:22;;;;;;;4.40;3.90;;;;;;;18.43;100.00;96077.22;4992649;28;20247;-84
2021/08/19 02:15:49;;;;;;;4.27;3.73;;;;;;;18.36;100.00;96079.06;4992625;28;20207;-85
2021/08/19 02:18:18;;;;;;;4.23;3.43;;;;;;;18.37;100.00;96086.03;4992151;28;20197;-85
2021/08/19 02:20:45;;;;;;;5.20;4.20;;;;;;;18.41;100.00;96084.56;4992609;28;20669;-84
2021/08/19 02:23:12;;;;;;;4.23;3.83;;;;;;;18.45;100.00;96083.94;4992465;28;20700;-85
2021/08/19 02:25:39;;;;;;;7.07;4.53;;;;;;;18.36;100.00;96090.53;4992885;28;20637;-85
2021/08/19 02:28:07;;;;;;;8.60;4.77;;;;;;;18.39;100.00;96094.59;4992208;28;20238;-84
2021/08/19 02:30:34;;;;;;;4.00;3.60;;;;;;;18.42;100.00;96088.84;4992888;28;20227;-85
2021/08/19 02:33:03;;;;;;;5.57;4.40;;;;;;;18.26;100.00;96085.66;4992340;28;20661;-85
2021/08/19 02:35:33;;;;;;;5.40;4.07;;;;;;;18.34;100.00;96081.94;4992808;28;20196;-84
2021/08/19 02:38:05;;;;;;;5.90;4.10;;;;;;;18.26;100.00;96084.84;4992249;28;20711;-85
2021/08/19 02:40:32;;;;;;;4.87;3.87;;;;;;;18.16;100.00;96093.28;4992697;28;20614;-85
2021/08/19 02:42:59;;;;;;;5.27;4.73;;;;;;;18.06;100.00;96087.56;4992212;28;20717;-84
2021/08/19 02:45:26;;;;;;;7.17;4.43;;;;;;;17.91;100.00;96085.19;4992636;28;20231;-85
2021/08/19 02:47:54;;;;;;;5.23;4.40;;;;;;;18.16;100.00;96087.13;4992082;28;20237;-85
2021/08/19 02:50:21;;;;;;;4.13;3.70;;;;;;;18.11;100.00;96092.25;4992194;28;20204;-86
2021/08/19 02:52:50;;;;;;;4.43;4.07;;;;;;;18.27;100.00;96092.59;4992192;28;20673;-85
2021/08/19 02:55:17;;;;;;;5.40;4.03;;;;;;;18.01;100.00;96084.72;4991284;28;20232;-87
2021/08/19 02:57:44;;;;;;;4.50;4.10;;;;;;;18.08;100.00;96082.03;4991841;28;20204;-86
2021/08/19 03:00:12;;;;;;;4.83;3.73;;;;;;;17.76;100.00;96085.41;4991725;28;20579;-85
2021/08/19 03:02:40;;;;;;;8.97;4.40;;;;;;;17.89;100.00;96083.75;4991952;28;20208;-85
2021/08/19 03:05:08;;;;;;;4.27;3.87;;;;;;;17.93;100.00;96088.44;4991633;28;20226;-85
2021/08/19 03:07:35;;;;;;;5.10;4.60;;;;;;;17.92;100.00;96086.81;4991935;28;20224;-85
2021/08/19 03:10:05;;;;;;;4.70;3.67;;;;;;;17.18;100.00;96100.34;4992151;28;20201;-84
2021/08/19 03:12:33;;;;;;;6.57;4.10;;;;;;;17.28;100.00;96104.25;4992101;28;20204;-85
2021/08/19 03:15:00;;;;;;;4.87;4.30;;;;;;;17.41;100.00;96097.28;4994414;28;20764;-84
2021/08/19 03:17:29;;;;;;;3.97;3.67;;;;;;;17.62;100.00;96106.88;4998112;28;20269;-83
2021/08/19 03:19:56;;;;;;;5.37;3.77;;;;;;;17.83;100.00;96101.34;4992423;28;20254;-82
2021/08/19 03:22:23;;;;;;;4.13;3.57;;;;;;;17.77;100.00;96103.00;4992070;28;20637;-82
2021/08/19 03:24:51;;;;;;;6.20;3.50;;;;;;;17.59;100.00;96113.41;4991939;28;20323;-82
2021/08/19 03:27:20;;;;;;;4.73;3.97;;;;;;;17.83;100.00;96120.75;4991466;28;20193;-82
2021/08/19 03:29:48;;;;;;;5.13;4.57;;;;;;;17.61;100.00;96118.53;4992218;28;20240;-82
2021/08/19 03:32:15;;;;;;;4.87;4.20;;;;;;;17.56;100.00;96117.31;4994723;28;20211;-82
2021/08/19 03:34:42;;;;;;;5.53;3.93;;;;;;;17.59;100.00;96124.03;4995089;28;20196;-82
2021/08/19 03:37:09;;;;;;;5.13;3.80;;;;;;;17.39;100.00;96125.88;4995163;28;20295;-82
2021/08/19 03:39:36;;;;;;;5.37;3.70;;;;;;;17.49;100.00;96127.13;4995666;28;20243;-82
2021/08/19 03:42:05;;;;;;;4.40;3.37;;;;;;;17.46;100.00;96130.19;4994818;28;20232;-82
2021/08/19 03:44:33;;;;;;;4.73;3.70;;;;;;;17.50;100.00;96142.03;4995162;28;20204;-82
2021/08/19 03:47:01;;;;;;;17.30;3.60;;;;;;;17.55;100.00;96141.41;4995007;28;20211;-82
2021/08/19 03:49:28;;;;;;;5.00;3.53;;;;;;;17.50;100.00;96151.84;4995363;28;20196;-82
2021/08/19 03:51:55;;;;;;;11.27;3.87;;;;;;;17.40;100.00;96160.22;4995027;28;20243;-82
2021/08/19 03:54:23;;;;;;;4.90;3.70;;;;;;;17.35;100.00;96160.00;4995013;28;20295;-82
2021/08/19 03:56:51;;;;;;;3.47;3.17;;;;;;;17.42;100.00;96158.16;4994657;28;20208;-82
2021/08/19 03:59:18;;;;;;;4.13;3.40;;;;;;;17.37;100.00;96155.31;4995641;28;20200;-82
2021/08/19 04:01:47;;;;;;;3.60;3.30;;;;;;;17.47;100.00;96162.88;4994866;28;20664;-82
2021/08/19 04:04:14;;;;;;;4.57;4.00;;;;;;;17.39;100.00;96165.72;4995104;28;20290;-82
2021/08/19 04:06:41;;;;;;;5.37;3.60;;;;;;;17.20;100.00;96162.03;4994543;28;20220;-83
2021/08/19 04:09:09;;;;;;;5.33;4.77;;;;;;;17.22;100.00;96168.00;4994791;28;20665;-82
2021/08/19 04:11:36;;;;;;;4.43;3.70;;;;;;;17.26;100.00;96167.38;4995039;28;20283;-82
2021/08/19 04:14:03;;;;;;;9.00;4.17;;;;;;;17.52;100.00;96157.75;4994583;28;20200;-83
2021/08/19 04:16:31;;;;;;;4.03;3.63;;;;;;;17.64;100.00;96164.13;4994599;28;20235;-83
2021/08/19 04:18:59;;;;;;;4.77;4.33;;;;;;;17.57;100.00;96171.28;4994476;28;20204;-83
2021/08/19 04:21:26;;;;;;;5.00;3.40;;;;;;;17.48;100.00;96180.47;4994642;28;20196;-83
2021/08/19 04:23:53;;;;;;;7.13;3.53;;;;;;;17.47;100.00;96184.97;4994697;28;20283;-82
2021/08/19 04:26:21;;;;;;;15.57;5.13;;;;;;;17.46;100.00;96175.34;4994791;28;20224;-83
2021/08/19 04:28:48;;;;;;;7.10;3.93;;;;;;;17.30;100.00;96179.22;4994299;28;20206;-82
2021/08/19 04:31:15;;;;;;;4.63;3.87;;;;;;;17.17;100.00;96168.56;4994331;28;20200;-82
2021/08/19 04:33:42;;;;;;;5.77;3.80;;;;;;;17.07;100.00;96170.81;4993996;28;20200;-82
2021/08/19 04:36:11;;;;;;;8.23;4.00;;;;;;;16.88;100.00;96159.94;4994575;28;20192;-82
2021/08/19 04:38:38;;;;;;;6.80;3.90;;;;;;;17.04;100.00;96160.59;4994097;28;20200;-82
2021/08/19 04:41:05;;;;;;;4.03;3.57;;;;;;;17.21;100.00;96161.03;4994269;28;20210;-82
2021/08/19 04:43:33;;;;;;;4.93;4.33;;;;;;;17.18;100.00;96164.06;4993325;28;20328;-81
2021/08/19 04:46:00;;;;;;;11.47;4.63;;;;;;;17.20;100.00;96168.16;4993143;28;20262;-82
2021/08/19 04:48:27;;;;;;;3.23;2.93;;;;;;;17.19;100.00;96173.69;4993880;28;20196;-82
2021/08/19 04:50:54;;;;;;;4.90;3.27;;;;;;;17.03;100.00;96182.84;4993969;28;20235;-82
2021/08/19 04:53:23;;;;;;;3.70;3.37;;;;;;;17.11;100.00;96177.34;4993868;28;20208;-82
2021/08/19 04:55:50;;;;;;;6.57;3.40;;;;;;;17.25;100.00;96179.03;4993676;28;20206;-82
2021/08/19 04:58:17;;;;;;;6.67;6.07;;;;;;;17.25;100.00;96173.72;4993790;28;20211;-82
2021/08/19 05:00:45;;;;;;;9.67;5.73;;;;;;;17.47;100.00;96177.00;4994002;28;20204;-82
2021/08/19 05:03:12;;;;;;;7.00;4.60;;;;;;;17.34;100.00;96180.44;4993700;28;20208;-82
2021/08/19 05:05:39;;;;;;;4.60;3.53;;;;;;;17.37;100.00;96186.38;4993994;28;20227;-82
2021/08/19 05:08:06;;;;;;;4.47;3.43;;;;;;;17.57;100.00;96188.03;4993561;28;20295;-82
2021/08/19 05:10:35;;;;;;;5.23;3.73;;;;;;;17.71;100.00;96188.03;4993662;28;20244;-82
2021/08/19 05:13:02;;;;;;;10.10;4.23;;;;;;;17.79;100.00;96193.97;4993193;28;20290;-82
2021/08/19 05:15:30;;;;;;;8.87;4.03;;;;;;;17.67;100.00;96203.56;4993643;28;20294;-82
2021/08/19 05:17:57;;;;;;;4.40;4.00;;;;;;;17.72;100.00;96189.66;4993288;28;20200;-82
2021/08/19 05:20:24;;;;;;;4.70;4.20;;;;;;;17.70;100.00;96200.50;4993797;28;20204;-82
2021/08/19 05:22:51;;;;;;;4.30;4.00;;;;;;;17.83;100.00;96208.50;4993034;28;20240;-82
2021/08/19 05:25:19;;;;;;;8.77;4.33;;;;;;;17.90;100.00;96202.34;4993651;28;20602;-82
2021/08/19 05:27:47;;;;;;;4.40;4.00;;;;;;;17.81;100.00;96202.56;4993173;28;20207;-82
2021/08/19 05:30:14;;;;;;;5.50;4.33;;;;;;;17.95;100.00;96203.38;4993330;28;20208;-82
2021/08/19 05:32:42;;;;;;;4.33;3.63;;;;;;;17.82;100.00;96212.19;4992967;28;20287;-82
2021/08/19 05:35:10;;;;;;;5.37;4.57;;;;;;;17.85;100.00;96210.97;4993231;28;20231;-82
2021/08/19 05:37:37;;;;;;;4.23;3.83;;;;;;;18.10;100.00;96215.63;4993329;28;20238;-82
2021/08/19 05:40:06;;;;;;;5.47;4.77;;;;;;;18.22;100.00;96217.47;4993123;28;20200;-82
2021/08/19 05:42:33;;;;;;;7.27;4.07;;;;;;;18.20;100.00;96218.69;4992579;28;20294;-82
2021/08/19 05:45:02;;;;;;;4.10;3.80;;;;;;;18.44;100.00;96222.53;4993064;28;20201;-82
2021/08/19 05:47:29;;;;;;;4.17;3.77;;;;;;;18.51;100.00;96221.47;4992911;28;20204;-82
2021/08/19 05:49:56;;;;;;;5.10;3.73;;;;;;;18.68;100.00;96219.16;4992944;28;20743;-82
2021/08/19 05:52:23;;;;;;;4.10;3.40;;;;;;;18.82;100.00;96227.16;4992997;28;20231;-82
2021/08/19 05:54:50;;;;;;;4.17;2.93;;;;;;;18.89;100.00;96226.06;4992209;28;20211;-82
2021/08/19 05:57:18;;;;;;;5.83;3.60;;;;;;;19.07;100.00;96235.22;4992688;28;20303;-83
2021/08/19 05:59:45;;;;;;;4.07;3.67;;;;;;;19.27;100.00;96232.44;4992831;28;20238;-82
2021/08/19 06:02:14;;;;;;;5.43;3.53;;;;;;;19.40;100.00;96238.53;4992402;28;20299;-82
2021/08/19 06:04:41;;;;;;;7.83;3.63;;;;;;;19.54;100.00;96244.59;4992869;28;20200;-82
2021/08/19 06:07:08;;;;;;;3.93;3.53;;;;;;;19.77;100.00;96256.53;4992427;28;20315;-82
2021/08/19 06:09:36;;;;;;;8.83;3.80;;;;;;;19.94;100.00;96262.97;4992694;28;20204;-82
2021/08/19 06:12:04;;;;;;;6.87;3.10;;;;;;;20.08;100.00;96261.81;4992243;28;20283;-82
2021/08/19 06:14:31;;;;;;;5.47;2.70;;;;;;;20.27;100.00;96269.91;4992685;28;20753;-82
2021/08/19 06:16:59;;;;;;;3.07;2.77;;;;;;;20.32;100.00;96280.72;4992452;28;20242;-82
2021/08/19 06:19:27;;;;;;;4.10;3.00;;;;;;;20.33;100.00;96277.84;4992539;28;20211;-82
2021/08/19 06:21:55;;;;;;;2.80;2.60;;;;;;;20.42;100.00;96302.38;4992467;28;20290;-82
2021/08/19 06:24:22;;;;;;;4.33;2.83;;;;;;;20.72;100.00;96285.72;4992586;28;20203;-82
2021/08/19 06:26:49;;;;;;;5.33;3.13;;;;;;;20.77;100.00;96299.19;4992293;28;20219;-82
2021/08/19 06:29:16;;;;;;;2.70;2.50;;;;;;;20.81;100.00;96322.56;4992757;28;20288;-82
2021/08/19 06:31:44;;;;;;;3.13;2.87;;;;;;;21.04;100.00;96305.88;4992459;28;20298;-82
2021/08/19 06:34:11;;;;;;;3.70;2.40;;;;;;;21.24;100.00;96326.22;4992419;28;20287;-83
2021/08/19 06:36:40;;;;;;;2.43;2.30;;;;;;;21.27;100.00;96321.25;4992660;28;20200;-83
2021/08/19 06:39:07;;;;;;;4.50;2.93;;;;;;;21.36;100.00;96338.63;4992311;28;20291;-82
2021/08/19 06:41:34;;;;;;;7.17;3.43;;;;;;;21.18;100.00;96346.63;4991909;28;20296;-82
2021/08/19 06:44:01;;;;;;;3.57;2.70;;;;;;;20.92;100.00;96346.91;4992276;28;20192;-83
2021/08/19 06:46:29;;;;;;;3.60;2.57;;;;;;;21.21;100.00;96348.84;4992293;28;20263;-83
2021/08/19 06:48:56;;;;;;;3.73;2.50;;;;;;;21.08;100.00;96365.84;4991924;28;20298;-83
2021/08/19 06:51:23;;;;;;;2.97;2.60;;;;;;;21.06;100.00;96367.09;4992322;28;20287;-82
2021/08/19 06:53:52;;;;;;;3.97;2.60;;;;;;;21.33;100.00;96357.75;4992064;28;20266;-83
2021/08/19 06:56:19;;;;;;;3.77;2.40;;;;;;;21.50;100.00;96363.34;4992284;28;20200;-83
2021/08/19 06:58:46;;;;;;;3.90;2.77;;;;;;;21.60;100.00;96368.16;4992036;28;20212;-83
2021/08/19 07:01:14;;;;;;;2.83;2.50;;;;;;;22.20;100.00;96370.00;4992425;28;20252;-83
2021/08/19 07:03:41;;;;;;;2.87;2.50;;;;;;;22.62;100.00;96359.25;4991978;28;20201;-83
2021/08/19 07:06:11;;;;;;;4.07;2.80;;;;;;;23.11;100.00;96368.72;4995261;28;20227;-83
2021/08/19 07:08:39;;;;;;;3.40;2.10;;;;;;;23.09;100.00;96375.34;4996105;28;20661;-83
2021/08/19 07:11:08;;;;;;;2.80;2.27;;;;;;;23.31;100.00;96373.69;4995726;28;20202;-83
2021/08/19 07:13:36;;;;;;;3.37;2.57;;;;;;;23.50;100.00;96377.81;4995947;28;20227;-83
2021/08/19 07:16:04;;;;;;;3.33;2.83;;;;;;;23.55;100.00;96385.16;4995854;28;20279;-84
2021/08/19 07:18:31;;;;;;;3.50;2.67;;;;;;;23.53;100.00;96387.28;4995923;28;20200;-83
2021/08/19 07:20:58;;;;;;;2.80;2.60;;;;;;;23.66;100.00;96387.00;4995560;28;20201;-83
2021/08/19 07:23:25;;;;;;;4.13;2.40;;;;;;;23.79;100.00;96385.13;4995522;28;20283;-83
2021/08/19 07:25:53;;;;;;;4.00;2.17;;;;;;;23.84;100.00;96383.34;4995607;28;20232;-83
2021/08/19 07:28:22;;;;;;;4.50;2.50;;;;;;;23.98;100.00;96385.75;4995506;28;20196;-83
2021/08/19 07:30:50;;;;;;;2.77;2.57;;;;;;;24.33;100.00;96390.94;4995694;28;20279;-83
2021/08/19 07:33:19;;;;;;;2.63;1.87;;;;;;;24.36;100.00;96390.44;4995255;28;20205;-83
2021/08/19 07:35:49;;;;;;;3.97;2.73;;;;;;;24.28;100.00;96390.81;4995478;28;20200;-83
2021/08/19 07:38:18;;;;;;;2.20;2.07;;;;;;;24.58;100.00;96395.94;4995383;28;20270;-83
2021/08/19 07:40:46;;;;;;;3.50;2.17;;;;;;;24.96;100.00;96400.56;4995674;28;20200;-83
2021/08/19 07:43:14;;;;;;;2.80;2.50;;;;;;;25.64;100.00;96400.44;4995080;28;20236;-83
2021/08/19 07:45:43;;;;;;;3.00;2.67;;;;;;;25.60;100.00;96397.44;4995296;28;20196;-83
2021/08/19 07:48:11;;;;;;;3.03;2.60;;;;;;;25.51;100.00;96402.41;4995069;28;20628;-83
2021/08/19 07:50:39;;;;;;;2.70;2.10;;;;;;;25.50;100.00;96394.59;4995333;28;20287;-83
2021/08/19 07:53:06;;;;;;;3.03;2.60;;;;;;;25.54;100.00;96395.72;4995389;28;20629;-83
2021/08/19 07:55:34;;;;;;;4.07;2.60;;;;;;;24.98;100.00;96398.44;4995109;28;20294;-83
2021/08/19 07:58:02;;;;;;;2.57;2.30;;;;;;;25.27;100.00;96398.34;4995451;28;20223;-83
2021/08/19 08:00:30;;;;;;;3.03;2.43;;;;;;;25.13;100.00;96389.81;4994766;28;20291;-83
2021/08/19 08:03:00;;;;;;;3.00;2.67;;;;;;;25.98;100.00;96385.78;4994818;28;20743;-83
2021/08/19 08:05:29;;;;;;;3.07;2.77;;;;;;;26.32;100.00;96390.94;4994927;28;20208;-83
2021/08/19 08:08:02;;;;;;;3.80;2.90;;;;;;;26.44;100.00;96394.28;4994689;28;20224;-83
2021/08/19 08:10:30;;;;;;;3.60;2.93;;;;;;;25.53;100.00;96392.22;4995020;28;20189;-82
2021/08/19 08:12:58;;;;;;;3.70;2.97;;;;;;;25.75;100.00;96392.22;4994532;28;20207;-83
2021/08/19 08:15:25;;;;;;;2.90;2.63;;;;;;;26.51;100.00;96388.72;4994791;28;20207;-83
2021/08/19 08:17:53;;;;;;;3.93;3.00;;;;;;;26.15;100.00;96383.00;4993908;28;20322;-83
2021/08/19 08:20:21;;;;;;;2.77;2.57;;;;;;;25.55;100.00;96386.59;4994670;28;20287;-82
2021/08/19 08:22:50;;;;;;;3.28;2.97;;;;;;;25.79;100.00;96382.59;4994576;28;20242;-83
2021/08/19 08:25:18;;;;;;;3.77;3.10;;;;;;;26.39;100.00;96391.53;4994143;28;20625;-82
2021/08/19 08:27:54;;;;;;;4.47;3.05;;;;;;;26.78;100.00;96384.09;4994266;28;20234;-81
2021/08/19 08:30:21;;;;;;;2.97;2.77;;;;;;;26.61;100.00;96388.81;4994558;28;20196;-82
2021/08/19 08:32:49;;;;;;;4.65;2.65;;;;;;;25.87;100.00;96386.72;4994012;28;20207;-82
2021/08/19 08:35:21;;;;;;;4.85;3.28;;;;;;;26.50;100.00;96387.09;4994556;28;20254;-83
2021/08/19 08:37:48;;;;;;;5.65;3.17;;;;;;;26.63;100.00;96375.06;4992732;28;20268;-82
2021/08/19 08:40:17;;;;;;;5.55;3.33;;;;;;;26.77;100.00;96379.75;4993502;28;20745;-83
2021/08/19 08:42:44;;;;;;;3.50;3.20;;;;;;;25.88;100.00;96384.84;4992584;28;20244;-82
2021/08/19 08:45:12;;;;;;;3.23;2.93;;;;;;;26.12;100.00;96382.66;4994367;28;20204;-83
2021/08/19 08:47:40;;;;;;;3.83;3.45;;;;;;;26.04;100.00;96375.84;4994006;28;20287;-82
2021/08/19 08:50:10;;;;;;;6.35;3.55;;;;;;;26.84;100.00;96376.81;4994433;28;20683;-82
2021/08/19 08:52:40;;;;;;;3.55;3.00;;;;;;;26.44;100.00;96382.69;4993826;28;20584;-83
2021/08/19 08:55:09;;;;;;;4.07;2.97;;;;;;;27.20;100.00;96380.59;4994083;28;20195;-83
2021/08/19 08:57:38;;;;;;;3.13;2.92;;;;;;;27.77;100.00;96375.47;4994422;28;20238;-82
2021/08/19 09:00:07;;;;;;;3.03;2.72;;;;;;;27.85;100.00;96383.88;4994200;28;20236;-83
2021/08/19 09:02:35;;;;;;;3.13;2.92;;;;;;;27.45;100.00;96382.59;4994082;28;20208;-83
2021/08/19 09:05:17;;;;;;;3.53;3.22;;;;;;;27.36;100.00;96386.88;4993570;28;20202;-83
2021/08/19 09:07:46;;;;;;;3.75;3.03;;;;;;;27.19;100.00;96381.69;4993658;28;20315;-83
2021/08/19 09:10:14;;;;;;;5.55;3.20;;;;;;;26.84;100.00;96378.72;4993752;28;20235;-83
2021/08/19 09:12:43;;;;;;;4.68;3.00;;;;;;;27.41;100.00;96380.72;4993551;28;20204;-83
2021/08/19 09:15:12;;;;;;;4.72;2.90;;;;;;;27.90;100.00;96381.19;4993807;28;20200;-83
2021/08/19 09:17:45;;;;;;;4.78;3.20;;;;;;;28.26;100.00;96366.94;4993769;28;20223;-83
2021/08/19 09:20:14;;;;;;;3.83;2.97;;;;;;;27.55;100.00;96378.34;4993913;28;20267;-83
2021/08/19 09:22:56;;;;;;;3.13;2.35;;;;;;;28.29;100.00;96379.91;4993639;28;20586;-83
2021/08/19 09:25:29;;;;;;;2.60;2.40;;;;;;;28.14;100.00;96372.59;4993372;28;20192;-83
2021/08/19 09:28:20;;;;;;;3.28;2.78;;;;;;;27.94;100.00;96376.88;4992561;28;20247;-83
2021/08/19 09:30:50;;;;;;;3.42;3.13;;;;;;;28.31;100.00;96370.44;4993316;28;20283;-83
2021/08/19 09:33:20;;;;;;;2.83;2.63;;;;;;;28.15;100.00;96379.63;4993339;28;20206;-83
2021/08/19 09:35:49;;;;;;;3.65;2.92;;;;;;;28.53;100.00;96383.72;4993078;28;20192;-83
2021/08/19 09:38:20;;;;;;;3.25;2.95;;;;;;;27.90;100.00;96367.69;4993049;28;20756;-83
2021/08/19 09:41:05;;;;;;;3.00;2.80;;;;;;;27.94;100.00;96374.16;4993237;28;20199;-83
2021/08/19 09:43:53;;;;;;;2.70;2.50;;;;;;;28.58;100.00;96375.63;4992942;28;20326;-84
2021/08/19 09:46:36;;;;;;;4.85;3.35;;;;;;;27.65;100.00;96359.47;4988631;28;20210;-83
2021/08/19 09:49:22;;;;;;;4.05;3.30;;;;;;;28.32;100.00;96372.06;4993223;28;20188;-83
2021/08/19 09:52:10;;;;;;;2.85;2.58;;;;;;;28.00;100.00;96361.50;4992972;28;20188;-83
2021/08/19 09:54:40;;;;;;;3.72;2.83;;;;;;;28.15;100.00;96360.69;4993016;28;20255;-83
2021/08/19 09:57:08;;;;;;;3.13;2.83;;;;;;;28.25;100.00;96368.00;4992851;28;20622;-84
2021/08/19 09:59:38;;;;;;;3.08;2.78;;;;;;;28.02;100.00;96363.91;4992945;28;20215;-84
2021/08/19 10:02:06;;;;;;;3.10;2.83;;;;;;;28.33;100.00;96364.75;4992663;28;20207;-83
2021/08/19 10:04:34;;;;;;;2.70;2.50;;;;;;;28.07;100.00;96378.25;4992818;28;20204;-84
2021/08/19 10:07:02;;;;;;;4.00;3.60;;;;;;;27.95;100.00;96366.88;4992466;28;20322;-83
2021/08/19 10:09:30;;;;;;;3.15;2.83;;;;;;;28.48;100.00;96367.53;4992690;28;20208;-83
2021/08/19 10:12:00;;;;;;;4.70;3.10;;;;;;;28.54;100.00;96365.63;4992819;28;20211;-84
2021/08/19 10:14:28;;;;;;;3.17;2.85;;;;;;;28.40;100.00;96363.47;4992604;28;20350;-83
2021/08/19 10:16:56;;;;;;;3.30;3.00;;;;;;;28.11;100.00;96355.03;4992597;28;20200;-83
2021/08/19 10:19:29;;;;;;;3.30;3.00;;;;;;;28.17;100.00;96359.34;4992687;28;20200;-83
2021/08/19 10:22:05;;;;;;;3.10;2.80;;;;;;;28.25;100.00;96354.50;4992563;28;20633;-84
2021/08/19 10:24:35;;;;;;;2.95;2.75;;;;;;;28.14;100.00;96335.56;4992632;28;20187;-83
2021/08/19 10:27:19;;;;;;;4.53;2.90;;;;;;;28.46;100.00;96353.47;4992311;28;20239;-83
2021/08/19 10:29:48;;;;;;;3.72;3.05;;;;;;;28.17;100.00;96351.25;4992601;28;20196;-83
2021/08/19 10:32:24;;;;;;;3.50;2.97;;;;;;;28.28;100.00;96351.25;4992682;28;20204;-83
2021/08/19 10:34:59;;;;;;;3.22;3.03;;;;;;;28.36;100.00;96356.13;4992529;28;20200;-83
2021/08/19 10:38:01;;;;;;;2.80;2.60;;;;;;;28.48;100.00;96345.91;4992151;28;20191;-83
2021/08/19 10:40:31;;;;;;;5.15;3.47;;;;;;;28.19;100.00;96334.75;4994621;28;20204;-83
2021/08/19 10:43:21;;;;;;;2.65;2.45;;;;;;;28.64;100.00;96343.97;4996077;28;20259;-83
2021/08/19 10:45:48;;;;;;;3.92;2.58;;;;;;;28.86;100.00;96351.81;4996435;28;20239;-83
2021/08/19 10:48:22;;;;;;;3.03;2.72;;;;;;;28.56;100.00;96341.84;4995832;28;20346;-83
2021/08/19 10:50:50;;;;;;;3.88;2.70;;;;;;;28.09;100.00;96354.50;4996384;28;20196;-83
2021/08/19 10:53:21;;;;;;;6.95;3.03;;;;;;;28.09;100.00;96343.69;4996056;28;20200;-83
2021/08/19 10:55:50;;;;;;;3.03;2.60;;;;;;;28.71;100.00;96349.13;4996376;28;20215;-83
2021/08/19 10:58:29;;;;;;;6.07;3.25;;;;;;;28.86;100.00;96354.53;4996136;28;20196;-82
2021/08/19 11:00:59;;;;;;;3.35;2.92;;;;;;;28.71;100.00;96344.50;4996496;28;20621;-83
2021/08/19 11:03:46;;;;;;;3.75;2.63;;;;;;;28.61;100.00;96345.34;4995733;28;20695;-83
2021/08/19 11:06:16;;;;;;;4.22;2.88;;;;;;;29.07;100.00;96339.91;4996144;28;20196;-83
2021/08/19 11:08:48;;;;;;;3.30;2.83;;;;;;;29.19;100.00;96334.16;4995799;28;20217;-83
2021/08/19 11:11:26;;;;;;;2.88;2.67;;;;;;;28.66;100.00;96336.41;4996122;28;20692;-83
2021/08/19 11:14:01;;;;;;;3.47;2.97;;;;;;;28.77;100.00;96329.91;4995635;28;20195;-83
2021/08/19 11:16:28;;;;;;;3.53;2.80;;;;;;;28.74;100.00;96326.94;4996140;28;20195;-83
2021/08/19 11:19:10;;;;;;;3.53;2.90;;;;;;;28.84;100.00;96332.31;4995646;28;20208;-83
2021/08/19 11:21:38;;;;;;;3.35;3.00;;;;;;;29.34;100.00;96320.59;4995501;28;20223;-83
2021/08/19 11:24:07;;;;;;;2.97;2.78;;;;;;;29.33;100.00;96315.44;4995580;28;20246;-83
2021/08/19 11:26:34;;;;;;;2.88;2.67;;;;;;;29.50;100.00;96318.59;4995616;28;20206;-83
2021/08/19 11:29:03;;;;;;;3.97;3.10;;;;;;;29.28;100.00;96318.19;4995390;28;20264;-82
2021/08/19 11:31:31;;;;;;;5.05;3.78;;;;;;;29.04;100.00;96323.41;4995671;28;20232;-83
2021/08/19 11:34:00;;;;;;;4.03;3.47;;;;;;;29.20;100.00;96310.59;4995349;28;20683;-83
2021/08/19 11:36:27;;;;;;;3.40;2.90;;;;;;;29.02;100.00;96320.94;4995803;28;20645;-83